M I D A S
Marine Information and Data Acquisition System
Tripno 1370 of the Zeeleeuw from 2007-12-18 07:33:26 to 2007-12-18 16:04:42
Back to CruiseResearch ActivitiesStationsMapUnderway DataData graphs

EquipmentUnitsComment
TimeDGPSUTC
LatitudeDGPSDM.mWGS84
LongitudeDGPSDM.mWGS84
HeadingGyrodeg 
SOGDGPSknotsSpeed over ground
COGDGPSdegCourse over ground
DepthEcho soundermeters200 kHz
Missing or incorrect values are displayed as -999
Navigation data collected by the RV Zeeleeuw from 2007-12-18 07:35:43 to 2007-12-18 16:13:49
Time Latitude Longitude Heading SOG COG Depth
2007-12-18 07:36:48 51°13.61 2°56.041 113.7 3.7 293 -999
2007-12-18 07:37:48 51°13.644 2°55.927 118.1 5.3 297 -999
2007-12-18 07:38:48 51°13.677 2°55.814 109.1 4 290 -999
2007-12-18 07:39:47 51°13.685 2°55.743 92.6 1 285 12.9
2007-12-18 07:40:45 51°13.697 2°55.754 44.3 1.7 35 15
2007-12-18 07:41:47 51°13.69 2°55.747 32.5 0.7 218 -999
2007-12-18 07:42:47 51°13.734 2°55.726 334.8 4.9 333 14.1
2007-12-18 07:43:45 51°13.813 2°55.653 333.1 6.2 332 11.9
2007-12-18 07:44:44 51°13.909 2°55.585 341.2 6.6 339 12.3
2007-12-18 07:45:44 51°14.017 2°55.508 338 7.6 335 12
2007-12-18 07:46:47 51°14.143 2°55.416 336.8 8.1 333 12.1
2007-12-18 07:47:47 51°14.262 2°55.269 317.1 10.3 312 12.1
2007-12-18 07:48:46 51°14.363 2°55.024 300.6 11.9 296 11.6
2007-12-18 07:49:44 51°14.494 2°54.803 329.8 12.3 332 12.3
2007-12-18 07:50:44 51°14.698 2°54.731 356.1 13 357 11.2
2007-12-18 07:51:44 51°14.914 2°54.718 356.3 12.9 357 10.7
2007-12-18 07:52:44 51°15.129 2°54.693 356 12.9 355 9.6
2007-12-18 07:53:44 51°15.343 2°54.655 356 12.8 354 10.3
2007-12-18 07:54:44 51°15.556 2°54.616 353.9 13 353 11
2007-12-18 07:55:44 51°15.773 2°54.608 1.4 13.1 -999 11.6
2007-12-18 07:56:44 51°15.99 2°54.616 0.9 13 359 12
2007-12-18 07:57:44 51°16.132 2°54.566 319.9 5.8 321 12.5
2007-12-18 07:58:44 51°16.172 2°54.465 295 4.3 306 12.7
2007-12-18 07:59:44 51°16.212 2°54.373 288.9 4.1 297 12.6
2007-12-18 08:00:44 51°16.241 2°54.299 298.3 1.6 324 12.8
2007-12-18 08:01:44 51°16.254 2°54.297 316.6 0.7 358 12.7
2007-12-18 08:02:44 51°16.265 2°54.299 331.7 0.6 2 12.6
2007-12-18 08:03:44 51°16.272 2°54.3 332.9 0.4 12 12.7
2007-12-18 08:04:44 51°16.278 2°54.302 329.6 0.4 30 12.6
2007-12-18 08:05:44 51°16.285 2°54.303 326.5 0.9 343 12.6
2007-12-18 08:06:44 51°16.361 2°54.218 319.1 9.5 320 12.6
2007-12-18 08:07:44 51°16.485 2°53.989 307.5 12.4 307 12.6
2007-12-18 08:08:44 51°16.623 2°53.739 313.3 12.5 312 12.3
2007-12-18 08:09:44 51°16.762 2°53.489 312.8 12.7 312 12.6
2007-12-18 08:10:44 51°16.887 2°53.223 306.5 12.5 306 10
2007-12-18 08:11:44 51°17.004 2°52.951 305.7 12.6 304 9.9
2007-12-18 08:12:44 51°17.12 2°52.673 303.2 12.4 305 10.8
2007-12-18 08:13:44 51°17.267 2°52.431 323.4 12.8 323 11.5
2007-12-18 08:14:44 51°17.445 2°52.239 328.8 12.9 327 11.9
2007-12-18 08:15:44 51°17.64 2°52.098 344.6 12.9 342 11.6
2007-12-18 08:16:44 51°17.84 2°51.975 341.4 12.8 339 11.4
2007-12-18 08:17:44 51°18.032 2°51.825 329.7 12.8 327 11.9
2007-12-18 08:18:44 51°18.183 2°51.589 315.9 12.8 314 12.7
2007-12-18 08:19:44 51°18.322 2°51.333 310.2 12.7 307 13.9
2007-12-18 08:20:44 51°18.429 2°51.13 314.2 7.1 315 14.8
2007-12-18 08:21:44 51°18.491 2°51.026 300.9 4.2 305 15.2
2007-12-18 08:22:44 51°18.514 2°50.984 320.6 0.7 346 15.3
2007-12-18 08:23:44 51°18.524 2°50.976 329.5 0.7 317 15.2
2007-12-18 08:24:44 51°18.532 2°50.967 335.2 0.6 329 15.2
2007-12-18 08:25:44 51°18.54 2°50.96 340.1 0.6 338 15.4
2007-12-18 08:26:44 51°18.547 2°50.951 344.6 0.6 333 15.2
2007-12-18 08:27:44 51°18.568 2°50.941 4.5 2.5 1 15.3
2007-12-18 08:28:44 51°18.615 2°50.983 66.4 4.2 57 15.4
2007-12-18 08:29:44 51°18.67 2°51.166 70.1 10.1 63 15.6
2007-12-18 08:30:44 51°18.741 2°51.427 75.7 11 69 15.4
2007-12-18 08:31:44 51°18.796 2°51.738 84.2 13 77 14.9
2007-12-18 08:32:44 51°18.845 2°52.079 81.6 13.1 74 14.4
2007-12-18 08:33:44 51°18.903 2°52.418 83.1 13.2 77 13.7
2007-12-18 08:34:44 51°18.958 2°52.756 83.1 13.2 77 13.3
2007-12-18 08:35:45 51°19.015 2°53.099 82.3 13.1 77 13.2
2007-12-18 08:36:44 51°19.079 2°53.426 77.4 13.2 71 13.1
2007-12-18 08:37:45 51°19.146 2°53.766 80.9 13.3 74 13.1
2007-12-18 08:38:44 51°19.208 2°54.094 80 13.2 74 13
2007-12-18 08:39:44 51°19.274 2°54.426 79.5 13 72 12.7
2007-12-18 08:40:45 51°19.34 2°54.765 79.1 13.1 74 12.7
2007-12-18 08:41:44 51°19.41 2°55.088 78.3 13.2 72 12.7
2007-12-18 08:42:44 51°19.478 2°55.418 77.6 13.1 73 12.6
2007-12-18 08:43:44 51°19.55 2°55.746 76.8 13.1 71 12.6
2007-12-18 08:44:44 51°19.615 2°56.077 77.6 13.1 71 12.5
2007-12-18 08:45:44 51°19.681 2°56.408 77.2 13 72 12.1
2007-12-18 08:46:44 51°19.748 2°56.739 77.3 13.1 73 12.2
2007-12-18 08:47:44 51°19.811 2°57.07 78.3 13.1 75 11.9
2007-12-18 08:48:44 51°19.874 2°57.4 77.6 13 73 11.8
2007-12-18 08:49:44 51°19.939 2°57.729 77.4 13 74 11.7
2007-12-18 08:50:44 51°19.997 2°58.059 78.5 12.9 73 11.5
2007-12-18 08:51:44 51°20.057 2°58.387 76.7 12.8 72 11.4
2007-12-18 08:52:44 51°20.117 2°58.714 77.2 12.7 74 11.1
2007-12-18 08:53:44 51°20.175 2°59.039 76.2 12.8 73 11
2007-12-18 08:54:44 51°20.243 2°59.358 73.2 12.6 71 10.9
2007-12-18 08:55:44 51°20.31 2°59.677 74.9 12.6 71 10.9
2007-12-18 08:56:44 51°20.38 2°59.993 72.7 12.5 72 11
2007-12-18 08:57:44 51°20.446 3°0.309 73.3 12.6 70 11.1
2007-12-18 08:58:44 51°20.513 3°0.625 75.6 12.6 73 10.9
2007-12-18 08:59:44 51°20.576 3°0.945 74.9 12.6 72 10.9
2007-12-18 09:00:44 51°20.641 3°1.264 75.1 12.6 70 10.9
2007-12-18 09:01:44 51°20.708 3°1.581 72.9 12.5 71 11
2007-12-18 09:02:44 51°20.777 3°1.895 71.9 12.5 69 11
2007-12-18 09:03:44 51°20.862 3°2.201 68.9 12.5 68 11.1
2007-12-18 09:04:45 51°20.941 3°2.516 70.4 12.5 67 10.9
2007-12-18 09:05:44 51°21.025 3°2.814 67.4 12.5 65 11
2007-12-18 09:06:44 51°21.106 3°3.12 67.5 12.5 66 11.2
2007-12-18 09:07:44 51°21.178 3°3.428 74 12.4 72 11.2
2007-12-18 09:08:44 51°21.255 3°3.733 68.9 12.4 67 11.4
2007-12-18 09:09:44 51°21.33 3°4.041 70.9 12.5 70 11.4
2007-12-18 09:10:44 51°21.403 3°4.35 71.7 12.5 70 11.4
2007-12-18 09:11:44 51°21.48 3°4.658 70.3 12.5 70 11.3
2007-12-18 09:12:44 51°21.551 3°4.97 71.7 12.4 72 11.6
2007-12-18 09:13:44 51°21.628 3°5.278 70.2 12.4 68 11.5
2007-12-18 09:14:44 51°21.703 3°5.585 70.6 12.4 69 11.5
2007-12-18 09:15:44 51°21.783 3°5.887 70.4 12.3 67 11.3
2007-12-18 09:16:44 51°21.841 3°6.199 80.3 12.3 76 11.8
2007-12-18 09:17:44 51°21.888 3°6.516 77.6 12.3 74 12
2007-12-18 09:18:44 51°21.926 3°6.835 82.8 12.2 80 12.2
2007-12-18 09:19:44 51°21.965 3°7.154 80.6 12.3 76 12.4
2007-12-18 09:20:44 51°22.001 3°7.47 88.4 12.1 84 12.4
2007-12-18 09:21:44 51°22.012 3°7.784 87.2 11.8 87 12.4
2007-12-18 09:22:44 51°22.035 3°8.098 86.7 12 84 12.3
2007-12-18 09:23:44 51°22.06 3°8.412 84.3 12 81 12.2
2007-12-18 09:24:44 51°22.084 3°8.727 84.7 12 82 12.6
2007-12-18 09:25:44 51°22.11 3°9.04 85.8 11.9 81 12.9
2007-12-18 09:26:44 51°22.139 3°9.35 84.6 11.8 80 13.3
2007-12-18 09:27:44 51°22.168 3°9.662 86.9 11.9 82 13.7
2007-12-18 09:28:44 51°22.196 3°9.976 85.3 11.9 81 14.1
2007-12-18 09:29:44 51°22.21 3°10.29 91.9 11.8 89 14.9
2007-12-18 09:30:44 51°22.223 3°10.595 90.5 10.7 88 18.8
2007-12-18 09:31:44 51°22.236 3°10.854 90.1 9.4 85 19
2007-12-18 09:32:44 51°22.251 3°11.028 73.3 4.3 64 17.4
2007-12-18 09:33:44 51°22.287 3°11.086 62.1 2.3 38 17
2007-12-18 09:34:44 51°22.301 3°11.113 92.2 0.7 91 16.8
2007-12-18 09:35:44 51°22.297 3°11.138 101.6 0.9 109 16.8
2007-12-18 09:36:44 51°22.29 3°11.142 105.9 0.5 213 16.8
2007-12-18 09:37:44 51°22.283 3°11.124 115 1 247 16.9
2007-12-18 09:38:44 51°22.276 3°11.092 123.3 1.5 250 17.1
2007-12-18 09:39:44 51°22.268 3°11.05 135.6 1.8 255 17.4
2007-12-18 09:40:44 51°22.261 3°11.002 149.4 1.9 257 17.5
2007-12-18 09:41:44 51°22.254 3°10.949 164.5 2.1 259 17.5
2007-12-18 09:42:44 51°22.249 3°10.894 176.5 2.1 262 18.2
2007-12-18 09:43:44 51°22.245 3°10.84 179.3 2.1 261 18.9
2007-12-18 09:44:44 51°22.228 3°10.794 159.1 2.2 202 18.8
2007-12-18 09:45:44 51°22.208 3°10.819 91.4 2 76 18.6
2007-12-18 09:46:44 51°22.252 3°10.919 76.2 5.9 66 17.5
2007-12-18 09:47:44 51°22.288 3°11.069 73.6 5.1 61 16.9
2007-12-18 09:48:44 51°22.326 3°11.149 76.8 2.6 59 16.3
2007-12-18 09:49:44 51°22.327 3°11.17 114.1 0.5 182 16.4
2007-12-18 09:50:44 51°22.314 3°11.155 133.5 1.3 226 16.4
2007-12-18 09:51:44 51°22.3 3°11.125 139.7 1.5 239 16.5
2007-12-18 09:52:44 51°22.288 3°11.088 143 1.6 243 16.8
2007-12-18 09:53:44 51°22.277 3°11.046 147 1.8 249 17.2
2007-12-18 09:54:44 51°22.259 3°11.026 120.3 1.5 141 17.1
2007-12-18 09:55:44 51°22.283 3°11.122 73.5 7 62 16.6
2007-12-18 09:56:44 51°22.348 3°11.337 73.9 10.1 65 16.1
2007-12-18 09:57:45 51°22.417 3°11.604 78.5 10.9 72 15.6
2007-12-18 09:58:45 51°22.467 3°11.882 80.3 10.9 74 15.1
2007-12-18 09:59:45 51°22.5 3°12.168 86.9 10.9 81 14.6
2007-12-18 10:00:45 51°22.532 3°12.456 84.9 11.1 79 14
2007-12-18 10:01:45 51°22.557 3°12.746 86.9 11 84 13.2
2007-12-18 10:02:45 51°22.583 3°13.008 87.8 7.1 84 12.5
2007-12-18 10:03:45 51°22.587 3°13.134 85 3.5 81 12.2
2007-12-18 10:04:45 51°22.6 3°13.189 80.8 1.4 71 12.2
2007-12-18 10:05:45 51°22.595 3°13.202 109 0.7 199 12.2
2007-12-18 10:06:45 51°22.581 3°13.187 131.6 1.3 221 12.2
2007-12-18 10:07:45 51°22.565 3°13.159 137.3 1.4 231 12.3
2007-12-18 10:08:45 51°22.551 3°13.128 136.5 1.4 211 12.4
2007-12-18 10:09:45 51°22.547 3°13.179 69.9 4.6 55 12.3
2007-12-18 10:10:45 51°22.667 3°13.194 351.4 10.4 335 11.6
2007-12-18 10:11:45 51°22.849 3°13.058 346.2 12.6 337 11.2
2007-12-18 10:12:45 51°23.039 3°12.919 340 12.7 330 11.3
2007-12-18 10:13:45 51°23.22 3°12.737 334.1 12.9 327 11.2
2007-12-18 10:14:45 51°23.403 3°12.561 336.8 12.8 329 11.2
2007-12-18 10:15:45 51°23.575 3°12.356 321.8 13.1 313 11.4
2007-12-18 10:16:45 51°23.711 3°12.083 308.2 13.3 303 11.6
2007-12-18 10:17:45 51°23.772 3°11.746 274.6 13.4 271 12.1
2007-12-18 10:18:45 51°23.774 3°11.386 272.9 13.5 272 13
2007-12-18 10:19:45 51°23.788 3°11.026 275 13.5 275 13.3
2007-12-18 10:20:45 51°23.802 3°10.666 274.8 13.6 275 14
2007-12-18 10:21:45 51°23.827 3°10.307 282 13.5 283 14.2
2007-12-18 10:22:45 51°23.941 3°10.005 317.7 13.3 314 16.1
2007-12-18 10:23:45 51°24.127 3°9.831 343.5 12.9 337 18.5
2007-12-18 10:24:45 51°24.325 3°9.698 342 13 337 15.9
2007-12-18 10:25:45 51°24.503 3°9.501 324.2 13.2 320 11.3
2007-12-18 10:26:45 51°24.658 3°9.25 317.2 13.2 315 9.5
2007-12-18 10:27:45 51°24.816 3°9.004 318.6 13.4 315 8.5
2007-12-18 10:28:45 51°24.966 3°8.745 314.7 13.2 312 5.5
2007-12-18 10:29:45 51°25.115 3°8.493 315.9 13 317 6.8
2007-12-18 10:30:45 51°25.278 3°8.261 317.4 13.2 315 7.1
2007-12-18 10:31:45 51°25.44 3°8.019 327.1 13.4 326 8
2007-12-18 10:32:45 51°25.642 3°7.883 346.9 13.2 344 8.7
2007-12-18 10:33:45 51°25.855 3°7.819 1.6 12.9 358 9.1
2007-12-18 10:34:45 51°26.069 3°7.824 4.3 12.8 359 8.8
2007-12-18 10:35:45 51°26.278 3°7.851 21.1 12.5 21 9.1
2007-12-18 10:36:45 51°26.377 3°8.056 80 7.9 74 9.9
2007-12-18 10:37:45 51°26.415 3°8.196 64.7 4.2 56 10.1
2007-12-18 10:38:45 51°26.446 3°8.263 79.4 2.2 60 10.1
2007-12-18 10:39:45 51°26.45 3°8.297 114.5 0.5 115 10.3
2007-12-18 10:40:45 51°26.445 3°8.291 141.8 0.5 231 10.2
2007-12-18 10:41:45 51°26.442 3°8.277 137.3 0.6 260 10.2
2007-12-18 10:42:45 51°26.442 3°8.261 131.9 0.6 273 10.1
2007-12-18 10:43:45 51°26.441 3°8.291 84.5 3 65 10
2007-12-18 10:44:45 51°26.511 3°8.303 340.4 5.8 327 10.3
2007-12-18 10:45:45 51°26.593 3°8.125 307.6 11.2 305 9.8
2007-12-18 10:46:45 51°26.696 3°7.83 294.2 13.3 294 10.3
2007-12-18 10:47:45 51°26.783 3°7.501 293.3 13.5 292 10.6
2007-12-18 10:48:45 51°26.874 3°7.173 296 13.5 294 11.1
2007-12-18 10:49:45 51°26.965 3°6.845 295.8 13.5 294 11.7
2007-12-18 10:50:45 51°27.057 3°6.517 295.9 13.6 294 12
2007-12-18 10:51:45 51°27.145 3°6.186 294.2 13.5 293 12.4
2007-12-18 10:52:45 51°27.246 3°5.865 300 13.5 298 12.8
2007-12-18 10:53:45 51°27.345 3°5.545 295.8 13.5 294 13.5
2007-12-18 10:54:45 51°27.436 3°5.216 294.9 13.4 294 14.2
2007-12-18 10:55:45 51°27.528 3°4.89 296.4 13.5 293 13.4
2007-12-18 10:56:45 51°27.62 3°4.565 296.8 13.5 293 12.8
2007-12-18 10:57:45 51°27.71 3°4.238 295.4 13.5 293 14.7
2007-12-18 10:58:45 51°27.798 3°3.911 296.1 13.4 293 16.8
2007-12-18 10:59:45 51°27.887 3°3.583 296.4 13.4 292 18.5
2007-12-18 11:00:45 51°27.981 3°3.291 311.9 10.3 309 20.3
2007-12-18 11:01:45 51°28.1 3°3.22 25.9 6.2 23 21.5
2007-12-18 11:02:45 51°28.17 3°3.325 37.3 6.1 22 21.7
2007-12-18 11:03:45 51°28.248 3°3.407 69.5 4 61 21.8
2007-12-18 11:04:45 51°28.265 3°3.465 84.6 1 81 22
2007-12-18 11:05:45 51°28.262 3°3.466 117.6 0.6 230 21.8
2007-12-18 11:06:45 51°28.254 3°3.447 143.8 1.1 239 21.8
2007-12-18 11:07:45 51°28.244 3°3.417 160.4 1.2 242 21.7
2007-12-18 11:08:45 51°28.236 3°3.387 164.5 1.1 247 21.8
2007-12-18 11:09:45 51°28.229 3°3.356 166.6 1.3 250 22
2007-12-18 11:10:45 51°28.222 3°3.323 172.2 1.3 255 21.9
2007-12-18 11:11:45 51°28.214 3°3.292 167.7 1.2 248 22
2007-12-18 11:12:45 51°28.205 3°3.261 164.9 1.3 247 21.9
2007-12-18 11:13:45 51°28.196 3°3.229 163.2 1.3 242 22.2
2007-12-18 11:14:45 51°28.186 3°3.199 162.8 1.3 248 22
2007-12-18 11:15:45 51°28.178 3°3.17 156.5 1.2 243 22.1
2007-12-18 11:16:45 51°28.159 3°3.149 167.6 2.4 197 22.1
2007-12-18 11:17:45 51°28.113 3°3.079 244.4 5.4 250 22.2
2007-12-18 11:18:45 51°28.074 3°2.88 252.1 10 247 22
2007-12-18 11:19:45 51°28.032 3°2.582 264.1 12.8 259 22.6
2007-12-18 11:20:45 51°28.003 3°2.234 265 13.3 264 23.1
2007-12-18 11:21:45 51°27.964 3°1.885 262.3 13.4 262 23
2007-12-18 11:22:45 51°27.915 3°1.538 259.1 13.3 258 22.6
2007-12-18 11:23:45 51°27.866 3°1.192 259.4 13.4 261 22.7
2007-12-18 11:24:45 51°27.816 3°0.847 259 13.3 256 22.1
2007-12-18 11:25:45 51°27.765 3°0.503 259 13.4 257 21.5
2007-12-18 11:26:45 51°27.721 3°0.157 260.1 13.4 260 19.1
2007-12-18 11:27:45 51°27.681 2°59.809 260.7 13.1 259 17.7
2007-12-18 11:28:45 51°27.637 2°59.465 256.9 13.3 257 18.1
2007-12-18 11:29:45 51°27.594 2°59.122 258.9 13.1 256 18.3
2007-12-18 11:30:45 51°27.552 2°58.776 258.7 13.3 260 17.8
2007-12-18 11:31:45 51°27.507 2°58.433 259.6 13.4 256 17.3
2007-12-18 11:32:45 51°27.466 2°58.088 258.2 13.2 259 20.5
2007-12-18 11:33:45 51°27.423 2°57.744 257.8 13.1 258 23.1
2007-12-18 11:34:45 51°27.378 2°57.401 258.5 13.3 260 25
2007-12-18 11:35:45 51°27.324 2°57.066 253.9 12.9 257 25.2
2007-12-18 11:36:45 51°27.267 2°56.726 257.2 13.3 257 16.5
2007-12-18 11:37:45 51°27.209 2°56.389 256.2 13.1 256 25.2
2007-12-18 11:38:45 51°27.153 2°56.049 256.8 13 256 27.6
2007-12-18 11:39:45 51°27.099 2°55.71 255.9 13.3 258 29.4
2007-12-18 11:40:45 51°27.041 2°55.375 254.4 13 253 27.7
2007-12-18 11:41:45 51°26.982 2°55.039 255.4 13.2 256 25.7
2007-12-18 11:42:45 51°26.922 2°54.701 255.8 13.2 254 26.5
2007-12-18 11:43:45 51°26.859 2°54.364 254.4 13.3 250 22
2007-12-18 11:44:45 51°26.797 2°54.021 254.9 13.7 258 27.4
2007-12-18 11:45:45 51°26.737 2°53.677 254.4 13.4 256 29.7
2007-12-18 11:46:45 51°26.676 2°53.337 255.2 13.4 250 30.2
2007-12-18 11:47:45 51°26.612 2°52.993 255.3 13.3 255 29
2007-12-18 11:48:45 51°26.554 2°52.649 256.1 13.2 258 26.9
2007-12-18 11:49:45 51°26.501 2°52.305 258.8 13.3 257 25.9
2007-12-18 11:50:45 51°26.453 2°51.959 259.1 13.5 258 24.3
2007-12-18 11:51:45 51°26.4 2°51.611 259 13.6 255 25.2
2007-12-18 11:52:45 51°26.347 2°51.258 258.4 13.6 257 25.4
2007-12-18 11:53:45 51°26.297 2°50.911 258.3 13.4 255 22.3
2007-12-18 11:54:45 51°26.251 2°50.564 260 13.2 261 22.4
2007-12-18 11:55:45 51°26.197 2°50.219 257.7 13.4 259 22.5
2007-12-18 11:56:45 51°26.145 2°49.867 258.6 13.5 254 22.3
2007-12-18 11:57:45 51°26.094 2°49.521 258.2 13.5 252 22.3
2007-12-18 11:58:45 51°26.026 2°49.183 242.6 13.1 241 22.8
2007-12-18 11:59:45 51°25.926 2°48.95 232.6 7.9 234 22.9
2007-12-18 12:00:45 51°25.859 2°48.794 249.4 6.6 249 23.1
2007-12-18 12:01:45 51°25.825 2°48.627 266.5 6.3 267 23
2007-12-18 12:02:45 51°25.87 2°48.485 317.5 7.7 308 22.6
2007-12-18 12:03:45 51°25.956 2°48.389 4.1 4.1 349 22.7
2007-12-18 12:04:45 51°25.999 2°48.416 67.5 2.4 66 22.8
2007-12-18 12:05:45 51°25.993 2°48.463 101.8 1.3 133 22.9
2007-12-18 12:06:45 51°25.977 2°48.466 117.7 1.1 198 22.8
2007-12-18 12:07:45 51°25.96 2°48.448 128.9 1.3 222 22.6
2007-12-18 12:08:45 51°25.945 2°48.418 135.8 1.5 234 22.7
2007-12-18 12:09:45 51°25.926 2°48.386 152.1 2.3 198 22.8
2007-12-18 12:10:45 51°25.87 2°48.329 228.5 5.2 235 22.8
2007-12-18 12:11:45 51°25.816 2°48.126 245.4 11.3 245 22.6
2007-12-18 12:12:45 51°25.724 2°47.81 246.3 13.4 245 22.8
2007-12-18 12:13:45 51°25.633 2°47.478 247.7 13.7 251 24.3
2007-12-18 12:14:45 51°25.559 2°47.134 251.4 13.9 255 24.1
2007-12-18 12:15:45 51°25.48 2°46.786 252.6 13.7 250 23.9
2007-12-18 12:16:45 51°25.405 2°46.441 252.4 13.6 253 24.5
2007-12-18 12:17:45 51°25.332 2°46.095 253.6 13.7 251 24.5
2007-12-18 12:18:45 51°25.259 2°45.75 250.9 13.9 251 23.3
2007-12-18 12:19:45 51°25.186 2°45.408 250.8 13.9 247 24.3
2007-12-18 12:20:45 51°25.114 2°45.065 250.5 13.6 245 25.3
2007-12-18 12:21:45 51°25.038 2°44.721 253.2 13.5 248 23.5
2007-12-18 12:22:45 51°24.965 2°44.381 250.7 13.6 251 24.7
2007-12-18 12:23:45 51°24.89 2°44.045 250.4 13.7 250 20.8
2007-12-18 12:24:45 51°24.816 2°43.703 251 13.5 252 22.4
2007-12-18 12:25:45 51°24.742 2°43.363 253.3 13.7 247 22
2007-12-18 12:26:45 51°24.669 2°43.022 251 13.6 248 20.6
2007-12-18 12:27:45 51°24.595 2°42.681 251.7 13.6 251 22.7
2007-12-18 12:28:45 51°24.523 2°42.336 252.8 13.5 253 20.5
2007-12-18 12:29:45 51°24.448 2°41.994 250.8 14 247 25.9
2007-12-18 12:30:45 51°24.38 2°41.649 253.7 13.6 253 23.1
2007-12-18 12:31:45 51°24.296 2°41.307 246.7 13.9 246 25.6
2007-12-18 12:32:45 51°24.212 2°40.973 248.9 13.8 249 27.3
2007-12-18 12:33:45 51°24.129 2°40.638 250.8 13.3 248 26.7
2007-12-18 12:34:45 51°24.048 2°40.305 248.7 13.5 248 25.9
2007-12-18 12:35:45 51°23.962 2°39.977 249 13.4 247 27.4
2007-12-18 12:36:45 51°23.876 2°39.65 249.7 13.3 244 24.2
2007-12-18 12:37:45 51°23.788 2°39.322 247.8 13.7 243 25.8
2007-12-18 12:38:45 51°23.704 2°38.993 248.8 13.3 250 25.1
2007-12-18 12:39:45 51°23.624 2°38.657 251.4 13.6 247 25.4
2007-12-18 12:40:45 51°23.541 2°38.328 250.6 13.3 251 25.2
2007-12-18 12:41:45 51°23.451 2°37.993 249 13.8 248 23.6
2007-12-18 12:42:45 51°23.363 2°37.659 249.8 13.5 248 24.3
2007-12-18 12:43:45 51°23.276 2°37.326 247.8 13.8 247 23.9
2007-12-18 12:44:45 51°23.13 2°37.063 211.4 13.3 211 21.3
2007-12-18 12:45:45 51°22.921 2°36.972 183.4 13.2 187 27.2
2007-12-18 12:46:45 51°22.705 2°36.928 186.5 13.2 189 27
2007-12-18 12:47:45 51°22.488 2°36.861 187.1 13.2 195 28.5
2007-12-18 12:48:45 51°22.271 2°36.794 186.1 13.6 190 29
2007-12-18 12:49:45 51°22.057 2°36.722 188.1 13.2 188 29.4
2007-12-18 12:50:45 51°21.841 2°36.643 189.5 13.3 193 29.8
2007-12-18 12:51:45 51°21.624 2°36.567 189.6 13.3 191 30.1
2007-12-18 12:52:45 51°21.41 2°36.486 189.9 13.3 191 26.9
2007-12-18 12:53:45 51°21.199 2°36.377 205 13.5 209 27.7
2007-12-18 12:54:45 51°21.072 2°36.086 250.4 13.7 252 27.6
2007-12-18 12:55:45 51°21.018 2°35.732 259.5 13.7 260 28.7
2007-12-18 12:56:45 51°20.948 2°35.382 250.6 13.9 253 26
2007-12-18 12:57:45 51°20.885 2°35.027 255.4 14 253 30.6
2007-12-18 12:58:45 51°20.821 2°34.674 253.9 13.9 253 30.9
2007-12-18 12:59:45 51°20.756 2°34.318 256.1 13.8 254 31.5
2007-12-18 13:00:45 51°20.686 2°33.966 253.3 13.8 255 30
2007-12-18 13:01:45 51°20.624 2°33.617 258.1 13.5 256 30.1
2007-12-18 13:02:45 51°20.565 2°33.264 256.3 13.9 253 30.1
2007-12-18 13:03:45 51°20.505 2°32.913 255.4 13.7 254 29.6
2007-12-18 13:04:45 51°20.45 2°32.552 257.6 14.2 258 29.5
2007-12-18 13:05:45 51°20.392 2°32.195 256.8 13.8 262 29.3
2007-12-18 13:06:45 51°20.343 2°31.838 259.6 13.9 254 28.7
2007-12-18 13:07:45 51°20.298 2°31.478 262.2 13.9 257 22.1
2007-12-18 13:08:45 51°20.259 2°31.117 261.4 13.8 264 17.8
2007-12-18 13:09:45 51°20.22 2°30.78 261.2 12.3 262 12.8
2007-12-18 13:10:45 51°20.193 2°30.497 262.6 9.2 262 11.4
2007-12-18 13:11:45 51°20.168 2°30.3 248.8 6.4 250 10.5
2007-12-18 13:12:45 51°20.112 2°30.185 213.3 5.3 225 11.5
2007-12-18 13:13:45 51°20.047 2°30.089 209 5.3 225 11.1
2007-12-18 13:14:45 51°19.999 2°29.987 225.9 3.8 237 13
2007-12-18 13:15:45 51°19.982 2°29.93 192.5 1.9 255 11.8
2007-12-18 13:16:45 51°19.973 2°29.884 174.9 1.9 251 11.3
2007-12-18 13:17:45 51°19.962 2°29.84 162 1.7 245 14.4
2007-12-18 13:18:45 51°19.949 2°29.804 150 1.8 211 13.4
2007-12-18 13:19:45 51°19.901 2°29.856 125.7 6.3 139 11
2007-12-18 13:20:45 51°19.786 2°30.012 134.2 10.9 141 11
2007-12-18 13:21:45 51°19.652 2°30.223 127.2 11.2 130 13.8
2007-12-18 13:22:45 51°19.52 2°30.45 126.1 11.7 133 16.2
2007-12-18 13:23:45 51°19.395 2°30.691 122 11.9 127 22.4
2007-12-18 13:24:45 51°19.281 2°30.944 121.2 11.8 126 28.6
2007-12-18 13:25:45 51°19.166 2°31.198 121.4 11.8 126 29.1
2007-12-18 13:26:45 51°19.053 2°31.455 119.9 11.8 125 29.3
2007-12-18 13:27:45 51°18.937 2°31.712 121.5 11.9 125 29.2
2007-12-18 13:28:45 51°18.821 2°31.968 121.7 11.9 126 29.8
2007-12-18 13:29:45 51°18.707 2°32.229 121.2 12 123 30.3
2007-12-18 13:30:45 51°18.592 2°32.491 120.4 12 126 27.6
2007-12-18 13:31:45 51°18.477 2°32.752 121.5 12 126 23.5
2007-12-18 13:32:45 51°18.365 2°33.012 122.7 11.9 124 21.8
2007-12-18 13:33:45 51°18.253 2°33.269 120.4 11.6 120 18.4
2007-12-18 13:34:45 51°18.148 2°33.526 118.8 11.5 124 23.2
2007-12-18 13:35:45 51°18.045 2°33.786 119.5 11.5 121 25.5
2007-12-18 13:36:45 51°17.945 2°34.046 119 11.4 120 27.1
2007-12-18 13:37:45 51°17.843 2°34.305 120.4 11.6 123 21.5
2007-12-18 13:38:45 51°17.742 2°34.571 119.7 11.8 122 22
2007-12-18 13:39:45 51°17.643 2°34.836 119.3 11.4 124 11.4
2007-12-18 13:40:45 51°17.544 2°35.102 118.5 11.6 119 8.5
2007-12-18 13:41:45 51°17.427 2°35.35 128.8 11.6 132 10.5
2007-12-18 13:42:45 51°17.299 2°35.589 130 12.2 131 12
2007-12-18 13:43:45 51°17.162 2°35.82 128.8 11.9 135 16.8
2007-12-18 13:44:45 51°17.036 2°36.041 129.1 9.8 134 23.1
2007-12-18 13:45:45 51°16.93 2°36.213 128.4 8.8 134 25.7
2007-12-18 13:46:45 51°16.833 2°36.382 126.4 8.5 133 26.2
2007-12-18 13:47:45 51°16.743 2°36.536 125.9 6.5 134 26.4
2007-12-18 13:48:45 51°16.678 2°36.629 124.7 4.4 141 25.7
2007-12-18 13:49:45 51°16.637 2°36.684 108.7 2.1 137 25.8
2007-12-18 13:50:45 51°16.622 2°36.71 82.4 1 110 25.4
2007-12-18 13:51:45 51°16.63 2°36.757 80.4 2.5 96 25.7
2007-12-18 13:52:45 51°16.599 2°36.788 134.7 2 185 25.7
2007-12-18 13:53:45 51°16.573 2°36.76 158 1.9 218 25.8
2007-12-18 13:54:45 51°16.549 2°36.727 155.8 2 222 25.9
2007-12-18 13:55:45 51°16.524 2°36.693 149.4 1.9 224 26.5
2007-12-18 13:56:45 51°16.499 2°36.662 148.7 2.4 190 26.2
2007-12-18 13:57:45 51°16.403 2°36.657 169.8 8.4 177 26.4
2007-12-18 13:58:45 51°16.242 2°36.684 169.1 10.3 175 27.2
2007-12-18 13:59:45 51°16.043 2°36.712 171.2 13.2 175 24.6
2007-12-18 14:00:45 51°15.827 2°36.747 170.6 12.9 175 17.9
2007-12-18 14:01:45 51°15.611 2°36.782 172.1 13.3 175 13.3
2007-12-18 14:02:45 51°15.395 2°36.815 173.2 13.1 175 12
2007-12-18 14:03:45 51°15.178 2°36.843 173.5 13.4 178 13.7
2007-12-18 14:04:45 51°14.962 2°36.876 172.1 13.1 173 11.7
2007-12-18 14:05:45 51°14.75 2°36.9 172.1 12.8 176 10
2007-12-18 14:06:45 51°14.54 2°36.925 173.7 12.9 176 10
2007-12-18 14:07:45 51°14.323 2°36.951 172 13.2 177 10.1
2007-12-18 14:08:45 51°14.109 2°36.994 162.9 12.8 164 14.2
2007-12-18 14:09:45 51°13.901 2°37.066 159.9 12.8 167 20.1
2007-12-18 14:10:45 51°13.698 2°37.159 158.8 12.7 165 17.2
2007-12-18 14:11:45 51°13.501 2°37.259 158.9 11.9 162 7.8
2007-12-18 14:12:45 51°13.306 2°37.36 157.1 12.6 160 8.4
2007-12-18 14:13:45 51°13.095 2°37.416 168.8 13 169 9.3
2007-12-18 14:14:45 51°12.876 2°37.43 176.3 13.2 184 10.4
2007-12-18 14:15:45 51°12.656 2°37.418 177.9 13.2 184 10.7
2007-12-18 14:16:45 51°12.437 2°37.352 192.8 13.3 195 10.6
2007-12-18 14:17:45 51°12.221 2°37.25 192.9 13.5 193 10.2
2007-12-18 14:18:45 51°12.003 2°37.156 194.6 13.5 197 10.7
2007-12-18 14:19:45 51°11.788 2°37.065 193.6 13.7 197 11.3
2007-12-18 14:20:45 51°11.57 2°36.974 193.7 13.4 195 12
2007-12-18 14:21:45 51°11.35 2°36.884 191.4 13.6 192 12.4
2007-12-18 14:22:45 51°11.133 2°36.791 192.1 13.5 195 11.9
2007-12-18 14:23:45 51°10.915 2°36.692 192.3 13.5 196 11.2
2007-12-18 14:24:45 51°10.695 2°36.602 192 13.6 194 9.7
2007-12-18 14:25:45 51°10.48 2°36.51 192.9 13.3 194 8.6
2007-12-18 14:26:45 51°10.263 2°36.494 164.7 12.8 167 14.3
2007-12-18 14:27:45 51°10.111 2°36.669 116.5 11 115 17.5
2007-12-18 14:28:45 51°10.097 2°36.961 87.8 11.5 89 17.4
2007-12-18 14:29:45 51°10.1 2°37.271 88 11.7 91 17.2
2007-12-18 14:30:45 51°10.097 2°37.574 87 11.2 90 17.2
2007-12-18 14:31:45 51°10.095 2°37.871 86.8 11.3 90 16.6
2007-12-18 14:32:45 51°10.094 2°38.172 87.8 11.4 91 16.2
2007-12-18 14:33:45 51°10.093 2°38.476 87.3 11.5 90 15.1
2007-12-18 14:34:45 51°10.09 2°38.78 88.5 11.6 92 14.6
2007-12-18 14:35:45 51°10.09 2°39.084 87.4 11.5 90 13.7
2007-12-18 14:36:45 51°10.089 2°39.392 87.8 11.7 89 12.6
2007-12-18 14:37:45 51°10.088 2°39.696 87.2 10.3 91 11.6
2007-12-18 14:38:45 51°10.087 2°39.869 84.3 4.8 91 11.5
2007-12-18 14:39:45 51°10.095 2°39.967 62.2 2.9 67 11.3
2007-12-18 14:40:45 51°10.1 2°40.007 71.7 0.4 192 11.2
2007-12-18 14:41:45 51°10.088 2°40 90 1 206 11.2
2007-12-18 14:42:45 51°10.071 2°39.983 116.7 1.3 217 11.1
2007-12-18 14:43:45 51°10.054 2°39.961 140.4 1.4 221 11.1
2007-12-18 14:44:45 51°10.035 2°39.941 146.8 2 181 11.1
2007-12-18 14:45:45 51°10.015 2°40.002 70.7 3.3 72 10.9
2007-12-18 14:46:45 51°10.086 2°40.085 41 7.8 42 11.1
2007-12-18 14:47:45 51°10.206 2°40.279 43.7 11.2 41 11.5
2007-12-18 14:48:45 51°10.36 2°40.459 38.1 11.5 36 12.2
2007-12-18 14:49:45 51°10.515 2°40.638 36.8 11.5 34 12.5
2007-12-18 14:50:45 51°10.671 2°40.815 37 11.5 34 12.5
2007-12-18 14:51:45 51°10.819 2°41 50.7 11.2 51 12.3
2007-12-18 14:52:45 51°10.896 2°41.269 69 11.2 69 12.2
2007-12-18 14:53:45 51°10.969 2°41.545 66.1 11.4 66 12.1
2007-12-18 14:54:45 51°11.039 2°41.803 66.4 7.9 67 12
2007-12-18 14:55:45 51°11.074 2°41.92 56.2 3 57 12.1
2007-12-18 14:56:45 51°11.09 2°41.973 69.6 2.1 82 12.3
2007-12-18 14:57:45 51°11.091 2°42.021 78.1 1.4 98 12.2
2007-12-18 14:58:45 51°11.08 2°42.038 92.3 0.9 165 12.1
2007-12-18 14:59:45 51°11.064 2°42.037 103.1 1.1 192 12.3
2007-12-18 15:00:45 51°11.045 2°42.026 112.4 1.3 205 12.3
2007-12-18 15:01:45 51°11.025 2°42.019 111.7 1.7 145 12.5
2007-12-18 15:02:45 51°11.018 2°42.132 88.1 7.5 91 12.7
2007-12-18 15:03:45 51°11.015 2°42.396 87.1 11.5 87 12.6
2007-12-18 15:04:45 51°11.047 2°42.703 76.5 11.9 77 12.7
2007-12-18 15:05:45 51°11.096 2°43.006 77.6 11.9 77 12.8
2007-12-18 15:06:45 51°11.142 2°43.31 76.9 11.7 78 12.6
2007-12-18 15:07:45 51°11.192 2°43.608 74.5 11.8 74 12.6
2007-12-18 15:08:45 51°11.248 2°43.908 74 11.8 74 12.6
2007-12-18 15:09:45 51°11.308 2°44.204 74.1 11.7 72 12.5
2007-12-18 15:10:45 51°11.367 2°44.498 73.3 11.6 72 12.7
2007-12-18 15:11:45 51°11.424 2°44.795 75.1 11.7 75 12.6
2007-12-18 15:12:45 51°11.482 2°45.092 73.7 11.7 72 12.7
2007-12-18 15:13:45 51°11.552 2°45.383 71.7 11.8 71 12.6
2007-12-18 15:14:45 51°11.62 2°45.672 70.2 11.5 67 12.8
2007-12-18 15:15:45 51°11.689 2°45.96 71.3 11.7 69 12.9
2007-12-18 15:16:45 51°11.76 2°46.247 71 11.6 69 12.8
2007-12-18 15:17:45 51°11.827 2°46.537 71.1 11.7 70 12.7
2007-12-18 15:18:45 51°11.9 2°46.824 68.7 11.7 65 12.7
2007-12-18 15:19:45 51°11.991 2°47.099 66.7 11.7 63 12.7
2007-12-18 15:20:45 51°12.079 2°47.374 66.2 11.6 63 12.8
2007-12-18 15:21:45 51°12.174 2°47.642 63.7 11.7 60 12.7
2007-12-18 15:22:45 51°12.271 2°47.912 60.8 11.9 56 12.7
2007-12-18 15:23:45 51°12.375 2°48.177 62.1 11.8 58 12.5
2007-12-18 15:24:45 51°12.475 2°48.448 62.8 11.9 59 12.5
2007-12-18 15:25:45 51°12.573 2°48.72 64.4 12 61 12.4
2007-12-18 15:26:45 51°12.673 2°48.996 63.5 12.1 62 12.2
2007-12-18 15:27:45 51°12.774 2°49.278 62.4 12.3 59 12.1
2007-12-18 15:28:45 51°12.873 2°49.56 66.7 12.2 64 12
2007-12-18 15:29:45 51°12.972 2°49.84 62.4 12.1 60 11.8
2007-12-18 15:30:45 51°13.07 2°50.122 64.6 12.2 61 11.7
2007-12-18 15:31:45 51°13.165 2°50.406 65.3 12.2 63 11.6
2007-12-18 15:32:45 51°13.264 2°50.688 63.8 12.2 61 11.4
2007-12-18 15:33:45 51°13.349 2°50.974 67.2 10.8 64 11.5
2007-12-18 15:34:45 51°13.42 2°51.205 66.8 8.9 65 11.4
2007-12-18 15:35:45 51°13.462 2°51.349 67.1 4.2 68 11.4
2007-12-18 15:36:45 51°13.482 2°51.426 67.6 2.5 72 11.4
2007-12-18 15:37:45 51°13.493 2°51.473 63.6 1.3 69 11.3
2007-12-18 15:38:45 51°13.495 2°51.494 65.8 0.4 102 11.5
2007-12-18 15:39:45 51°13.492 2°51.498 72.6 0.3 188 11.4
2007-12-18 15:40:45 51°13.483 2°51.494 77.9 0.7 209 11.4
2007-12-18 15:41:45 51°13.471 2°51.48 89.8 1.1 219 11.5
2007-12-18 15:42:45 51°13.465 2°51.498 68.7 2.1 65 11.6
2007-12-18 15:43:45 51°13.519 2°51.654 70.3 10.5 68 11.4
2007-12-18 15:44:45 51°13.6 2°51.933 67 11.9 64 11.1
2007-12-18 15:45:45 51°13.699 2°52.207 62.3 12 60 10.9
2007-12-18 15:46:45 51°13.799 2°52.482 62.2 12 58 10.9
2007-12-18 15:47:45 51°13.9 2°52.757 62.1 12 59 10.6
2007-12-18 15:48:45 51°14.001 2°53.034 64.4 12.1 60 10.6
2007-12-18 15:49:45 51°14.1 2°53.314 62.1 12.1 57 10.4
2007-12-18 15:50:45 51°14.239 2°53.544 44.9 12 39 10.2
2007-12-18 15:51:45 51°14.402 2°53.736 42.8 12.2 39 10.2
2007-12-18 15:52:45 51°14.564 2°53.932 40.6 12.2 36 11.1
2007-12-18 15:53:45 51°14.712 2°54.117 41.6 7.8 36 10.8
2007-12-18 15:54:45 51°14.764 2°54.147 8.9 0.8 312 10.5
2007-12-18 15:55:45 51°14.768 2°54.124 339.8 1 276 10.5
2007-12-18 15:56:45 51°14.767 2°54.095 331.6 1.1 262 10.6
2007-12-18 15:57:45 51°14.763 2°54.07 333.9 1 252 10.6
2007-12-18 15:58:45 51°14.793 2°54.057 27.1 3.7 27 10.6
2007-12-18 15:59:45 51°14.79 2°54.167 127.4 6.4 130 10.6
2007-12-18 16:00:45 51°14.688 2°54.357 129.9 11.3 128 11.3
2007-12-18 16:01:45 51°14.564 2°54.602 128.4 12.3 126 10.9
2007-12-18 16:02:45 51°14.441 2°54.87 127.8 12.8 124 11.5
2007-12-18 16:03:45 51°14.316 2°55.138 128 12.6 124 11.2
2007-12-18 16:04:49 51°14.175 2°55.373 145.9 9.7 147 -999
2007-12-18 16:05:48 51°14.05 2°55.47 158.6 8.2 156 11
2007-12-18 16:06:46 51°13.949 2°55.541 161.8 6.2 159 11.1
2007-12-18 16:07:45 51°13.851 2°55.605 160 6.5 157 11
2007-12-18 16:08:45 51°13.763 2°55.676 150.6 5.7 144 11.6
2007-12-18 16:09:45 51°13.698 2°55.782 128.3 5.6 128 4.9
2007-12-18 16:10:45 51°13.652 2°55.897 123.5 4.6 122 -999
2007-12-18 16:11:46 51°13.62 2°55.992 115.5 3.7 111 10.9
2007-12-18 16:12:46 51°13.606 2°56.064 113.2 1.9 110 9.3
2007-12-18 16:13:45 51°13.599 2°56.089 116.3 0.4 132 8.6